sensor_id;sensor_type;location;lat;lon;timestamp;temperature;humidity
6106;DHT22;3083;51.508;7.966;2023-11-18T00:01:21;-0.10;99.90
6106;DHT22;3083;51.508;7.966;2023-11-18T00:03:49;-0.10;99.90
6106;DHT22;3083;51.508;7.966;2023-11-18T00:06:15;-0.10;99.90
6106;DHT22;3083;51.508;7.966;2023-11-18T00:08:42;-0.10;99.90
6106;DHT22;3083;51.508;7.966;2023-11-18T00:11:10;-0.10;99.90
6106;DHT22;3083;51.508;7.966;2023-11-18T00:13:40;-0.10;99.90
6106;DHT22;3083;51.508;7.966;2023-11-18T00:16:08;-0.20;99.90
6106;DHT22;3083;51.508;7.966;2023-11-18T00:18:38;-0.20;99.90
6106;DHT22;3083;51.508;7.966;2023-11-18T00:21:05;-0.20;99.90
6106;DHT22;3083;51.508;7.966;2023-11-18T00:23:32;-0.20;99.90
6106;DHT22;3083;51.508;7.966;2023-11-18T00:25:59;-0.20;99.90
6106;DHT22;3083;51.508;7.966;2023-11-18T00:28:25;-0.20;99.90
6106;DHT22;3083;51.508;7.966;2023-11-18T00:30:54;-0.20;99.90
6106;DHT22;3083;51.508;7.966;2023-11-18T00:33:21;-0.20;99.90
6106;DHT22;3083;51.508;7.966;2023-11-18T00:35:48;-0.20;99.90
6106;DHT22;3083;51.508;7.966;2023-11-18T00:38:14;-0.30;99.90
6106;DHT22;3083;51.508;7.966;2023-11-18T00:40:43;-0.30;99.90
6106;DHT22;3083;51.508;7.966;2023-11-18T00:43:10;-0.30;99.90
6106;DHT22;3083;51.508;7.966;2023-11-18T00:45:37;-0.30;99.90
6106;DHT22;3083;51.508;7.966;2023-11-18T00:48:06;-0.30;99.90
6106;DHT22;3083;51.508;7.966;2023-11-18T00:50:33;-0.30;99.90
6106;DHT22;3083;51.508;7.966;2023-11-18T00:53:00;-0.30;99.90
6106;DHT22;3083;51.508;7.966;2023-11-18T00:55:26;-0.40;99.90
6106;DHT22;3083;51.508;7.966;2023-11-18T00:57:53;-0.30;99.90
6106;DHT22;3083;51.508;7.966;2023-11-18T01:00:20;-0.30;99.90
6106;DHT22;3083;51.508;7.966;2023-11-18T01:02:47;-0.30;99.90
6106;DHT22;3083;51.508;7.966;2023-11-18T01:05:16;-0.30;99.90
6106;DHT22;3083;51.508;7.966;2023-11-18T01:07:43;-0.30;99.90
6106;DHT22;3083;51.508;7.966;2023-11-18T01:10:10;-0.30;99.90
6106;DHT22;3083;51.508;7.966;2023-11-18T01:12:39;-0.30;99.90
6106;DHT22;3083;51.508;7.966;2023-11-18T01:15:06;-0.40;99.90
6106;DHT22;3083;51.508;7.966;2023-11-18T01:17:35;-0.40;99.90
6106;DHT22;3083;51.508;7.966;2023-11-18T01:20:03;-0.40;99.90
6106;DHT22;3083;51.508;7.966;2023-11-18T01:22:36;-0.40;99.90
6106;DHT22;3083;51.508;7.966;2023-11-18T01:25:04;-0.40;99.90
6106;DHT22;3083;51.508;7.966;2023-11-18T01:27:31;-0.30;99.90
6106;DHT22;3083;51.508;7.966;2023-11-18T01:29:59;-0.30;99.90
6106;DHT22;3083;51.508;7.966;2023-11-18T01:32:26;-0.30;99.90
6106;DHT22;3083;51.508;7.966;2023-11-18T01:34:55;-0.30;99.90
6106;DHT22;3083;51.508;7.966;2023-11-18T01:37:22;-0.30;99.90
6106;DHT22;3083;51.508;7.966;2023-11-18T01:39:51;-0.20;99.90
6106;DHT22;3083;51.508;7.966;2023-11-18T01:42:18;-0.20;99.90
6106;DHT22;3083;51.508;7.966;2023-11-18T01:44:45;-0.20;99.90
6106;DHT22;3083;51.508;7.966;2023-11-18T01:47:12;-0.20;99.90
6106;DHT22;3083;51.508;7.966;2023-11-18T01:49:40;-0.30;99.90
6106;DHT22;3083;51.508;7.966;2023-11-18T01:52:07;-0.40;99.90
6106;DHT22;3083;51.508;7.966;2023-11-18T01:54:36;-0.40;99.90
6106;DHT22;3083;51.508;7.966;2023-11-18T01:57:06;-0.40;99.90
6106;DHT22;3083;51.508;7.966;2023-11-18T01:59:35;-0.40;99.90
6106;DHT22;3083;51.508;7.966;2023-11-18T02:02:04;-0.40;99.90
6106;DHT22;3083;51.508;7.966;2023-11-18T02:04:31;-0.50;99.90
6106;DHT22;3083;51.508;7.966;2023-11-18T02:06:59;-0.50;99.90
6106;DHT22;3083;51.508;7.966;2023-11-18T02:09:29;-0.50;99.90
6106;DHT22;3083;51.508;7.966;2023-11-18T02:12:00;-0.60;99.90
6106;DHT22;3083;51.508;7.966;2023-11-18T02:14:28;-0.50;99.90
6106;DHT22;3083;51.508;7.966;2023-11-18T02:16:59;-0.50;99.90
6106;DHT22;3083;51.508;7.966;2023-11-18T02:19:29;-0.50;99.90
6106;DHT22;3083;51.508;7.966;2023-11-18T02:21:57;-0.40;99.90
6106;DHT22;3083;51.508;7.966;2023-11-18T02:24:26;-0.40;99.90
6106;DHT22;3083;51.508;7.966;2023-11-18T02:26:58;-0.40;99.90
6106;DHT22;3083;51.508;7.966;2023-11-18T02:29:27;-0.40;99.90
6106;DHT22;3083;51.508;7.966;2023-11-18T02:31:58;-0.40;99.90
6106;DHT22;3083;51.508;7.966;2023-11-18T02:34:30;-0.30;99.90
6106;DHT22;3083;51.508;7.966;2023-11-18T02:37:03;-0.30;99.90
6106;DHT22;3083;51.508;7.966;2023-11-18T02:39:38;-0.30;99.90
6106;DHT22;3083;51.508;7.966;2023-11-18T02:42:08;-0.30;99.90
6106;DHT22;3083;51.508;7.966;2023-11-18T02:44:38;-0.30;99.90
6106;DHT22;3083;51.508;7.966;2023-11-18T02:47:05;-0.30;99.90
6106;DHT22;3083;51.508;7.966;2023-11-18T02:49:34;-0.20;99.90
6106;DHT22;3083;51.508;7.966;2023-11-18T02:52:01;-0.20;99.90
6106;DHT22;3083;51.508;7.966;2023-11-18T02:54:28;-0.20;99.90
6106;DHT22;3083;51.508;7.966;2023-11-18T02:56:55;-0.10;99.90
6106;DHT22;3083;51.508;7.966;2023-11-18T02:59:23;0.00;99.90
6106;DHT22;3083;51.508;7.966;2023-11-18T03:01:53;0.10;99.90
6106;DHT22;3083;51.508;7.966;2023-11-18T03:04:20;0.10;99.90
6106;DHT22;3083;51.508;7.966;2023-11-18T03:06:49;0.20;99.90
6106;DHT22;3083;51.508;7.966;2023-11-18T03:09:16;0.20;99.90
6106;DHT22;3083;51.508;7.966;2023-11-18T03:11:44;0.20;99.90
6106;DHT22;3083;51.508;7.966;2023-11-18T03:14:11;0.30;99.90
6106;DHT22;3083;51.508;7.966;2023-11-18T03:16:39;0.30;99.90
6106;DHT22;3083;51.508;7.966;2023-11-18T03:19:06;0.30;99.90
6106;DHT22;3083;51.508;7.966;2023-11-18T03:21:34;0.30;99.90
6106;DHT22;3083;51.508;7.966;2023-11-18T03:24:01;0.30;99.90
6106;DHT22;3083;51.508;7.966;2023-11-18T03:26:28;0.40;99.90
6106;DHT22;3083;51.508;7.966;2023-11-18T03:28:55;0.30;99.90
6106;DHT22;3083;51.508;7.966;2023-11-18T03:31:22;0.30;99.90
6106;DHT22;3083;51.508;7.966;2023-11-18T03:33:50;0.40;99.90
6106;DHT22;3083;51.508;7.966;2023-11-18T03:36:17;0.40;99.90
6106;DHT22;3083;51.508;7.966;2023-11-18T03:38:44;0.40;99.90
6106;DHT22;3083;51.508;7.966;2023-11-18T03:41:11;0.40;99.90
6106;DHT22;3083;51.508;7.966;2023-11-18T03:43:38;0.40;99.90
6106;DHT22;3083;51.508;7.966;2023-11-18T03:46:05;0.40;99.90
6106;DHT22;3083;51.508;7.966;2023-11-18T03:48:33;0.50;99.90
6106;DHT22;3083;51.508;7.966;2023-11-18T03:51:02;0.50;99.90
6106;DHT22;3083;51.508;7.966;2023-11-18T03:53:30;0.50;99.90
6106;DHT22;3083;51.508;7.966;2023-11-18T03:55:59;0.60;99.90
6106;DHT22;3083;51.508;7.966;2023-11-18T03:58:26;0.60;99.90
6106;DHT22;3083;51.508;7.966;2023-11-18T04:00:53;0.60;99.90
6106;DHT22;3083;51.508;7.966;2023-11-18T04:03:20;0.60;99.90
6106;DHT22;3083;51.508;7.966;2023-11-18T04:05:47;0.60;99.90
6106;DHT22;3083;51.508;7.966;2023-11-18T04:08:15;0.60;99.90
6106;DHT22;3083;51.508;7.966;2023-11-18T04:10:43;0.60;99.90
6106;DHT22;3083;51.508;7.966;2023-11-18T04:13:09;0.50;99.90
6106;DHT22;3083;51.508;7.966;2023-11-18T04:15:36;0.50;99.90
6106;DHT22;3083;51.508;7.966;2023-11-18T04:18:03;0.50;99.90
6106;DHT22;3083;51.508;7.966;2023-11-18T04:20:33;0.50;99.90
6106;DHT22;3083;51.508;7.966;2023-11-18T04:22:59;0.50;99.90
6106;DHT22;3083;51.508;7.966;2023-11-18T04:25:28;0.50;99.90
6106;DHT22;3083;51.508;7.966;2023-11-18T04:27:54;0.50;99.90
6106;DHT22;3083;51.508;7.966;2023-11-18T04:30:21;0.50;99.90
6106;DHT22;3083;51.508;7.966;2023-11-18T04:32:48;0.60;99.90
6106;DHT22;3083;51.508;7.966;2023-11-18T04:35:18;0.60;99.90
6106;DHT22;3083;51.508;7.966;2023-11-18T04:37:47;0.60;99.90
6106;DHT22;3083;51.508;7.966;2023-11-18T04:40:14;0.60;99.90
6106;DHT22;3083;51.508;7.966;2023-11-18T04:42:43;0.70;99.90
6106;DHT22;3083;51.508;7.966;2023-11-18T04:45:10;0.70;99.90
6106;DHT22;3083;51.508;7.966;2023-11-18T04:47:36;0.70;99.90
6106;DHT22;3083;51.508;7.966;2023-11-18T04:50:04;0.70;99.90
6106;DHT22;3083;51.508;7.966;2023-11-18T04:52:31;0.80;99.90
6106;DHT22;3083;51.508;7.966;2023-11-18T04:55:00;0.80;99.90
6106;DHT22;3083;51.508;7.966;2023-11-18T04:57:27;0.80;99.90
6106;DHT22;3083;51.508;7.966;2023-11-18T04:59:55;0.80;99.90
6106;DHT22;3083;51.508;7.966;2023-11-18T05:02:22;0.80;99.90
6106;DHT22;3083;51.508;7.966;2023-11-18T05:04:49;0.80;99.90
6106;DHT22;3083;51.508;7.966;2023-11-18T05:07:16;0.80;99.90
6106;DHT22;3083;51.508;7.966;2023-11-18T05:09:43;0.80;99.90
6106;DHT22;3083;51.508;7.966;2023-11-18T05:12:09;0.80;99.90
6106;DHT22;3083;51.508;7.966;2023-11-18T05:14:36;0.90;99.90
6106;DHT22;3083;51.508;7.966;2023-11-18T05:17:05;0.90;99.90
6106;DHT22;3083;51.508;7.966;2023-11-18T05:19:32;0.90;99.90
6106;DHT22;3083;51.508;7.966;2023-11-18T05:21:59;1.00;99.90
6106;DHT22;3083;51.508;7.966;2023-11-18T05:24:26;1.00;99.90
6106;DHT22;3083;51.508;7.966;2023-11-18T05:26:53;0.90;99.90
6106;DHT22;3083;51.508;7.966;2023-11-18T05:29:21;0.90;99.90
6106;DHT22;3083;51.508;7.966;2023-11-18T05:31:51;0.90;99.90
6106;DHT22;3083;51.508;7.966;2023-11-18T05:34:19;0.90;99.90
6106;DHT22;3083;51.508;7.966;2023-11-18T05:36:46;0.90;99.90
6106;DHT22;3083;51.508;7.966;2023-11-18T05:39:16;0.90;99.90
6106;DHT22;3083;51.508;7.966;2023-11-18T05:41:45;0.90;99.90
6106;DHT22;3083;51.508;7.966;2023-11-18T05:44:15;0.90;99.90
6106;DHT22;3083;51.508;7.966;2023-11-18T05:46:45;1.00;99.90
6106;DHT22;3083;51.508;7.966;2023-11-18T05:49:13;0.90;99.90
6106;DHT22;3083;51.508;7.966;2023-11-18T05:51:41;1.00;99.90
6106;DHT22;3083;51.508;7.966;2023-11-18T05:54:08;1.00;99.90
6106;DHT22;3083;51.508;7.966;2023-11-18T05:56:35;1.00;99.90
6106;DHT22;3083;51.508;7.966;2023-11-18T05:59:02;1.00;99.90
6106;DHT22;3083;51.508;7.966;2023-11-18T06:01:29;1.00;99.90
6106;DHT22;3083;51.508;7.966;2023-11-18T06:03:57;1.00;99.90
6106;DHT22;3083;51.508;7.966;2023-11-18T06:06:24;1.00;99.90
6106;DHT22;3083;51.508;7.966;2023-11-18T06:08:53;1.10;99.90
6106;DHT22;3083;51.508;7.966;2023-11-18T06:11:20;1.10;99.90
6106;DHT22;3083;51.508;7.966;2023-11-18T06:13:50;1.10;99.90
6106;DHT22;3083;51.508;7.966;2023-11-18T06:16:17;1.20;99.90
6106;DHT22;3083;51.508;7.966;2023-11-18T06:18:47;1.20;99.90
6106;DHT22;3083;51.508;7.966;2023-11-18T06:21:15;1.20;99.90
6106;DHT22;3083;51.508;7.966;2023-11-18T06:23:42;1.20;99.90
6106;DHT22;3083;51.508;7.966;2023-11-18T06:26:11;1.30;99.90
6106;DHT22;3083;51.508;7.966;2023-11-18T06:28:39;1.30;99.90
6106;DHT22;3083;51.508;7.966;2023-11-18T06:31:06;1.40;99.90
6106;DHT22;3083;51.508;7.966;2023-11-18T06:33:37;1.40;99.90
6106;DHT22;3083;51.508;7.966;2023-11-18T06:36:06;1.50;99.90
6106;DHT22;3083;51.508;7.966;2023-11-18T06:38:33;1.50;99.90
6106;DHT22;3083;51.508;7.966;2023-11-18T06:41:01;1.60;99.90
6106;DHT22;3083;51.508;7.966;2023-11-18T06:43:30;1.60;99.90
6106;DHT22;3083;51.508;7.966;2023-11-18T06:46:11;1.70;99.90
6106;DHT22;3083;51.508;7.966;2023-11-18T06:48:39;1.70;99.90
6106;DHT22;3083;51.508;7.966;2023-11-18T06:51:06;1.80;99.90
6106;DHT22;3083;51.508;7.966;2023-11-18T06:53:34;1.80;99.90
6106;DHT22;3083;51.508;7.966;2023-11-18T06:56:01;1.90;99.90
6106;DHT22;3083;51.508;7.966;2023-11-18T06:58:29;1.90;99.90
6106;DHT22;3083;51.508;7.966;2023-11-18T07:00:56;2.00;99.90
6106;DHT22;3083;51.508;7.966;2023-11-18T07:03:23;2.10;99.90
6106;DHT22;3083;51.508;7.966;2023-11-18T07:05:50;2.10;99.90
6106;DHT22;3083;51.508;7.966;2023-11-18T07:08:17;2.20;99.90
6106;DHT22;3083;51.508;7.966;2023-11-18T07:10:43;2.20;99.90
6106;DHT22;3083;51.508;7.966;2023-11-18T07:13:12;2.30;99.90
6106;DHT22;3083;51.508;7.966;2023-11-18T07:15:40;2.30;99.90
6106;DHT22;3083;51.508;7.966;2023-11-18T07:18:07;2.30;99.90
6106;DHT22;3083;51.508;7.966;2023-11-18T07:20:34;2.40;99.90
6106;DHT22;3083;51.508;7.966;2023-11-18T07:23:02;2.40;99.90
6106;DHT22;3083;51.508;7.966;2023-11-18T07:25:28;2.50;99.90
6106;DHT22;3083;51.508;7.966;2023-11-18T07:27:56;2.50;99.90
6106;DHT22;3083;51.508;7.966;2023-11-18T07:30:23;2.50;99.90
6106;DHT22;3083;51.508;7.966;2023-11-18T07:32:52;2.60;99.90
6106;DHT22;3083;51.508;7.966;2023-11-18T07:35:19;2.60;99.90
6106;DHT22;3083;51.508;7.966;2023-11-18T07:37:46;2.70;99.90
6106;DHT22;3083;51.508;7.966;2023-11-18T07:40:13;2.70;99.90
6106;DHT22;3083;51.508;7.966;2023-11-18T07:42:47;2.80;99.90
6106;DHT22;3083;51.508;7.966;2023-11-18T07:45:14;2.90;99.90
6106;DHT22;3083;51.508;7.966;2023-11-18T07:47:44;2.90;99.90
6106;DHT22;3083;51.508;7.966;2023-11-18T07:50:12;3.00;99.90
6106;DHT22;3083;51.508;7.966;2023-11-18T07:52:40;3.10;99.90
6106;DHT22;3083;51.508;7.966;2023-11-18T07:55:07;3.20;99.90
6106;DHT22;3083;51.508;7.966;2023-11-18T07:57:38;3.20;99.90
6106;DHT22;3083;51.508;7.966;2023-11-18T08:00:06;3.30;99.90
6106;DHT22;3083;51.508;7.966;2023-11-18T08:02:34;3.40;99.90
6106;DHT22;3083;51.508;7.966;2023-11-18T08:05:03;3.40;99.90
6106;DHT22;3083;51.508;7.966;2023-11-18T08:07:34;3.50;99.90
6106;DHT22;3083;51.508;7.966;2023-11-18T08:10:02;3.60;99.90
6106;DHT22;3083;51.508;7.966;2023-11-18T08:12:31;3.70;99.90
6106;DHT22;3083;51.508;7.966;2023-11-18T08:14:58;3.80;99.90
6106;DHT22;3083;51.508;7.966;2023-11-18T08:17:25;3.90;99.90
6106;DHT22;3083;51.508;7.966;2023-11-18T08:19:52;4.00;99.90
6106;DHT22;3083;51.508;7.966;2023-11-18T08:22:19;4.10;99.90
6106;DHT22;3083;51.508;7.966;2023-11-18T08:24:50;4.20;99.90
6106;DHT22;3083;51.508;7.966;2023-11-18T08:27:17;4.30;99.90
6106;DHT22;3083;51.508;7.966;2023-11-18T08:29:45;4.40;99.90
6106;DHT22;3083;51.508;7.966;2023-11-18T08:32:14;4.50;99.90
6106;DHT22;3083;51.508;7.966;2023-11-18T08:34:41;4.60;99.90
6106;DHT22;3083;51.508;7.966;2023-11-18T08:37:08;4.70;99.90
6106;DHT22;3083;51.508;7.966;2023-11-18T08:39:35;4.70;99.90
6106;DHT22;3083;51.508;7.966;2023-11-18T08:42:03;4.80;99.90
6106;DHT22;3083;51.508;7.966;2023-11-18T08:44:33;4.80;99.90
6106;DHT22;3083;51.508;7.966;2023-11-18T08:47:00;4.90;99.90
6106;DHT22;3083;51.508;7.966;2023-11-18T08:49:31;4.90;99.90
6106;DHT22;3083;51.508;7.966;2023-11-18T08:51:59;5.00;99.90
6106;DHT22;3083;51.508;7.966;2023-11-18T08:54:27;5.00;99.90
6106;DHT22;3083;51.508;7.966;2023-11-18T08:57:04;5.10;99.90
6106;DHT22;3083;51.508;7.966;2023-11-18T08:59:45;5.20;99.90
6106;DHT22;3083;51.508;7.966;2023-11-18T09:02:12;5.30;99.90
6106;DHT22;3083;51.508;7.966;2023-11-18T09:04:41;5.30;99.90
6106;DHT22;3083;51.508;7.966;2023-11-18T09:07:09;5.30;99.90
6106;DHT22;3083;51.508;7.966;2023-11-18T09:09:36;5.40;99.90
6106;DHT22;3083;51.508;7.966;2023-11-18T09:12:07;5.40;99.90
6106;DHT22;3083;51.508;7.966;2023-11-18T09:14:35;5.40;99.90
6106;DHT22;3083;51.508;7.966;2023-11-18T09:17:02;5.40;99.90
6106;DHT22;3083;51.508;7.966;2023-11-18T09:19:32;5.50;99.90
6106;DHT22;3083;51.508;7.966;2023-11-18T09:21:59;5.50;99.90
6106;DHT22;3083;51.508;7.966;2023-11-18T09:24:26;5.50;99.90
6106;DHT22;3083;51.508;7.966;2023-11-18T09:26:53;5.50;99.90
6106;DHT22;3083;51.508;7.966;2023-11-18T09:29:21;5.50;99.90
6106;DHT22;3083;51.508;7.966;2023-11-18T09:31:50;5.50;99.90
6106;DHT22;3083;51.508;7.966;2023-11-18T09:34:18;5.50;99.90
6106;DHT22;3083;51.508;7.966;2023-11-18T09:36:52;5.50;99.90
6106;DHT22;3083;51.508;7.966;2023-11-18T09:39:20;5.50;99.90
6106;DHT22;3083;51.508;7.966;2023-11-18T09:42:04;5.50;99.90
6106;DHT22;3083;51.508;7.966;2023-11-18T09:44:36;5.50;99.90
6106;DHT22;3083;51.508;7.966;2023-11-18T09:47:07;5.50;99.90
6106;DHT22;3083;51.508;7.966;2023-11-18T09:49:41;5.50;99.90
6106;DHT22;3083;51.508;7.966;2023-11-18T09:52:15;5.50;99.90
6106;DHT22;3083;51.508;7.966;2023-11-18T09:54:48;5.50;99.90
6106;DHT22;3083;51.508;7.966;2023-11-18T09:57:26;5.50;99.90
6106;DHT22;3083;51.508;7.966;2023-11-18T10:00:00;5.50;99.90
6106;DHT22;3083;51.508;7.966;2023-11-18T10:02:39;5.50;99.90
6106;DHT22;3083;51.508;7.966;2023-11-18T10:05:07;5.60;99.90
6106;DHT22;3083;51.508;7.966;2023-11-18T10:07:38;5.60;99.90
6106;DHT22;3083;51.508;7.966;2023-11-18T10:10:07;5.60;99.90
6106;DHT22;3083;51.508;7.966;2023-11-18T10:12:40;5.70;99.90
6106;DHT22;3083;51.508;7.966;2023-11-18T10:15:12;5.70;99.90
6106;DHT22;3083;51.508;7.966;2023-11-18T10:17:42;5.80;99.90
6106;DHT22;3083;51.508;7.966;2023-11-18T10:20:21;5.80;99.90
6106;DHT22;3083;51.508;7.966;2023-11-18T10:23:05;5.90;99.90
6106;DHT22;3083;51.508;7.966;2023-11-18T10:25:35;6.00;99.90
6106;DHT22;3083;51.508;7.966;2023-11-18T10:28:06;5.90;99.90
6106;DHT22;3083;51.508;7.966;2023-11-18T10:30:44;6.00;99.90
6106;DHT22;3083;51.508;7.966;2023-11-18T10:33:14;6.00;99.90
6106;DHT22;3083;51.508;7.966;2023-11-18T10:35:49;6.00;99.90
6106;DHT22;3083;51.508;7.966;2023-11-18T10:38:16;6.00;99.90
6106;DHT22;3083;51.508;7.966;2023-11-18T10:40:43;6.00;99.90
6106;DHT22;3083;51.508;7.966;2023-11-18T10:43:10;6.00;99.90
6106;DHT22;3083;51.508;7.966;2023-11-18T10:45:37;6.10;99.90
6106;DHT22;3083;51.508;7.966;2023-11-18T10:48:08;6.10;99.90
6106;DHT22;3083;51.508;7.966;2023-11-18T10:50:35;6.10;99.90
6106;DHT22;3083;51.508;7.966;2023-11-18T10:53:02;6.10;99.90
6106;DHT22;3083;51.508;7.966;2023-11-18T10:55:37;6.10;99.90
6106;DHT22;3083;51.508;7.966;2023-11-18T10:58:05;6.10;99.90
6106;DHT22;3083;51.508;7.966;2023-11-18T11:00:49;6.10;99.90
6106;DHT22;3083;51.508;7.966;2023-11-18T11:03:18;6.10;99.90
6106;DHT22;3083;51.508;7.966;2023-11-18T11:05:49;6.20;99.90
6106;DHT22;3083;51.508;7.966;2023-11-18T11:08:16;6.20;99.90
6106;DHT22;3083;51.508;7.966;2023-11-18T11:10:44;6.20;99.90
6106;DHT22;3083;51.508;7.966;2023-11-18T11:13:11;6.20;99.90
6106;DHT22;3083;51.508;7.966;2023-11-18T11:15:41;6.20;99.90
6106;DHT22;3083;51.508;7.966;2023-11-18T11:18:20;6.20;99.90
6106;DHT22;3083;51.508;7.966;2023-11-18T11:20:59;6.20;99.90
6106;DHT22;3083;51.508;7.966;2023-11-18T11:23:35;6.30;99.90
6106;DHT22;3083;51.508;7.966;2023-11-18T11:26:17;6.30;99.90
6106;DHT22;3083;51.508;7.966;2023-11-18T11:29:07;6.30;99.90
6106;DHT22;3083;51.508;7.966;2023-11-18T11:31:38;6.30;99.90
6106;DHT22;3083;51.508;7.966;2023-11-18T11:34:17;6.30;99.90
6106;DHT22;3083;51.508;7.966;2023-11-18T11:36:48;6.40;99.90
6106;DHT22;3083;51.508;7.966;2023-11-18T11:39:16;6.40;99.90
6106;DHT22;3083;51.508;7.966;2023-11-18T11:41:51;6.50;99.90
6106;DHT22;3083;51.508;7.966;2023-11-18T11:44:20;6.50;99.90
6106;DHT22;3083;51.508;7.966;2023-11-18T11:46:54;6.50;99.90
6106;DHT22;3083;51.508;7.966;2023-11-18T11:49:23;6.60;99.90
6106;DHT22;3083;51.508;7.966;2023-11-18T11:51:58;6.60;99.90
6106;DHT22;3083;51.508;7.966;2023-11-18T11:54:34;6.60;99.90
6106;DHT22;3083;51.508;7.966;2023-11-18T11:57:04;6.60;99.90
6106;DHT22;3083;51.508;7.966;2023-11-18T11:59:55;6.60;99.90
6106;DHT22;3083;51.508;7.966;2023-11-18T12:02:24;6.60;99.90
6106;DHT22;3083;51.508;7.966;2023-11-18T12:04:56;6.60;99.90
6106;DHT22;3083;51.508;7.966;2023-11-18T12:07:25;6.60;99.90
6106;DHT22;3083;51.508;7.966;2023-11-18T12:09:55;6.60;99.90
6106;DHT22;3083;51.508;7.966;2023-11-18T12:12:24;6.60;99.90
6106;DHT22;3083;51.508;7.966;2023-11-18T12:14:53;6.60;99.90
6106;DHT22;3083;51.508;7.966;2023-11-18T12:17:22;6.60;99.90
6106;DHT22;3083;51.508;7.966;2023-11-18T12:19:49;6.70;99.90
6106;DHT22;3083;51.508;7.966;2023-11-18T12:22:25;6.70;99.90
6106;DHT22;3083;51.508;7.966;2023-11-18T12:27:58;6.70;99.90
6106;DHT22;3083;51.508;7.966;2023-11-18T12:30:43;6.70;99.90
6106;DHT22;3083;51.508;7.966;2023-11-18T12:33:19;6.70;99.90
6106;DHT22;3083;51.508;7.966;2023-11-18T12:36:44;6.70;99.90
6106;DHT22;3083;51.508;7.966;2023-11-18T12:42:43;6.70;99.90
6106;DHT22;3083;51.508;7.966;2023-11-18T12:45:35;6.70;99.90
6106;DHT22;3083;51.508;7.966;2023-11-18T12:48:12;6.60;99.90
6106;DHT22;3083;51.508;7.966;2023-11-18T12:50:41;6.60;99.90
6106;DHT22;3083;51.508;7.966;2023-11-18T12:53:09;6.70;99.90
6106;DHT22;3083;51.508;7.966;2023-11-18T12:55:40;6.60;99.90
6106;DHT22;3083;51.508;7.966;2023-11-18T12:58:09;6.60;99.90
6106;DHT22;3083;51.508;7.966;2023-11-18T13:00:40;6.60;99.90
6106;DHT22;3083;51.508;7.966;2023-11-18T13:03:08;6.70;99.90
6106;DHT22;3083;51.508;7.966;2023-11-18T13:05:36;6.60;99.90
6106;DHT22;3083;51.508;7.966;2023-11-18T13:08:04;6.60;99.90
6106;DHT22;3083;51.508;7.966;2023-11-18T13:10:31;6.60;99.90
6106;DHT22;3083;51.508;7.966;2023-11-18T13:12:58;6.60;99.90
6106;DHT22;3083;51.508;7.966;2023-11-18T13:15:27;6.60;99.90
6106;DHT22;3083;51.508;7.966;2023-11-18T13:17:58;6.60;99.90
6106;DHT22;3083;51.508;7.966;2023-11-18T13:20:25;6.60;99.90
6106;DHT22;3083;51.508;7.966;2023-11-18T13:22:52;6.50;99.90
6106;DHT22;3083;51.508;7.966;2023-11-18T13:25:22;6.50;99.90
6106;DHT22;3083;51.508;7.966;2023-11-18T13:27:49;6.50;99.90
6106;DHT22;3083;51.508;7.966;2023-11-18T13:30:17;6.50;99.90
6106;DHT22;3083;51.508;7.966;2023-11-18T13:32:47;6.50;99.90
6106;DHT22;3083;51.508;7.966;2023-11-18T13:35:16;6.50;99.90
6106;DHT22;3083;51.508;7.966;2023-11-18T13:37:47;6.50;99.90
6106;DHT22;3083;51.508;7.966;2023-11-18T13:40:15;6.50;99.90
6106;DHT22;3083;51.508;7.966;2023-11-18T13:42:43;6.40;99.90
6106;DHT22;3083;51.508;7.966;2023-11-18T13:45:12;6.50;99.90
6106;DHT22;3083;51.508;7.966;2023-11-18T13:47:50;6.40;99.90
6106;DHT22;3083;51.508;7.966;2023-11-18T13:50:17;6.40;99.90
6106;DHT22;3083;51.508;7.966;2023-11-18T13:52:45;6.40;99.90
6106;DHT22;3083;51.508;7.966;2023-11-18T13:55:15;6.40;99.90
6106;DHT22;3083;51.508;7.966;2023-11-18T13:57:48;6.40;99.90
6106;DHT22;3083;51.508;7.966;2023-11-18T14:00:15;6.40;99.90
6106;DHT22;3083;51.508;7.966;2023-11-18T14:02:43;6.30;99.90
6106;DHT22;3083;51.508;7.966;2023-11-18T14:05:16;6.40;99.90
6106;DHT22;3083;51.508;7.966;2023-11-18T14:07:45;6.40;99.90
6106;DHT22;3083;51.508;7.966;2023-11-18T14:10:13;6.40;99.90
6106;DHT22;3083;51.508;7.966;2023-11-18T14:12:58;6.30;99.90
6106;DHT22;3083;51.508;7.966;2023-11-18T14:15:25;6.40;99.90
6106;DHT22;3083;51.508;7.966;2023-11-18T14:17:52;6.40;99.90
6106;DHT22;3083;51.508;7.966;2023-11-18T14:20:21;6.30;99.90
6106;DHT22;3083;51.508;7.966;2023-11-18T14:22:49;6.30;99.90
6106;DHT22;3083;51.508;7.966;2023-11-18T14:25:16;6.30;99.90
6106;DHT22;3083;51.508;7.966;2023-11-18T14:27:43;6.30;99.90
6106;DHT22;3083;51.508;7.966;2023-11-18T14:30:12;6.30;99.90
6106;DHT22;3083;51.508;7.966;2023-11-18T14:32:38;6.30;99.90
6106;DHT22;3083;51.508;7.966;2023-11-18T14:35:06;6.30;99.90
6106;DHT22;3083;51.508;7.966;2023-11-18T14:37:37;6.30;99.90
6106;DHT22;3083;51.508;7.966;2023-11-18T14:40:08;6.30;99.90
6106;DHT22;3083;51.508;7.966;2023-11-18T14:42:39;6.30;99.90
6106;DHT22;3083;51.508;7.966;2023-11-18T14:45:08;6.30;99.90
6106;DHT22;3083;51.508;7.966;2023-11-18T14:47:35;6.30;99.90
6106;DHT22;3083;51.508;7.966;2023-11-18T14:50:02;6.30;99.90
6106;DHT22;3083;51.508;7.966;2023-11-18T14:52:31;6.30;99.90
6106;DHT22;3083;51.508;7.966;2023-11-18T14:54:59;6.30;99.90
6106;DHT22;3083;51.508;7.966;2023-11-18T14:57:26;6.30;99.90
6106;DHT22;3083;51.508;7.966;2023-11-18T14:59:54;6.30;99.90
6106;DHT22;3083;51.508;7.966;2023-11-18T15:02:21;6.30;99.90
6106;DHT22;3083;51.508;7.966;2023-11-18T15:04:50;6.30;99.90
6106;DHT22;3083;51.508;7.966;2023-11-18T15:07:18;6.30;99.90
6106;DHT22;3083;51.508;7.966;2023-11-18T15:09:44;6.30;99.90
6106;DHT22;3083;51.508;7.966;2023-11-18T15:12:13;6.30;99.90
6106;DHT22;3083;51.508;7.966;2023-11-18T15:14:41;6.30;99.90
6106;DHT22;3083;51.508;7.966;2023-11-18T15:17:08;6.30;99.90
6106;DHT22;3083;51.508;7.966;2023-11-18T15:19:38;6.30;99.90
6106;DHT22;3083;51.508;7.966;2023-11-18T15:22:05;6.30;99.90
6106;DHT22;3083;51.508;7.966;2023-11-18T15:24:32;6.30;99.90
6106;DHT22;3083;51.508;7.966;2023-11-18T15:26:59;6.30;99.90
6106;DHT22;3083;51.508;7.966;2023-11-18T15:29:30;6.30;99.90
6106;DHT22;3083;51.508;7.966;2023-11-18T15:32:04;6.30;99.90
6106;DHT22;3083;51.508;7.966;2023-11-18T15:34:31;6.30;99.90
6106;DHT22;3083;51.508;7.966;2023-11-18T15:36:58;6.30;99.90
6106;DHT22;3083;51.508;7.966;2023-11-18T15:39:26;6.30;99.90
6106;DHT22;3083;51.508;7.966;2023-11-18T15:41:54;6.30;99.90
6106;DHT22;3083;51.508;7.966;2023-11-18T15:44:19;6.30;99.90
6106;DHT22;3083;51.508;7.966;2023-11-18T15:46:49;6.40;99.90
6106;DHT22;3083;51.508;7.966;2023-11-18T15:49:15;6.40;99.90
6106;DHT22;3083;51.508;7.966;2023-11-18T15:51:42;6.40;99.90
6106;DHT22;3083;51.508;7.966;2023-11-18T15:54:09;6.40;99.90
6106;DHT22;3083;51.508;7.966;2023-11-18T15:56:37;6.40;99.90
6106;DHT22;3083;51.508;7.966;2023-11-18T15:59:04;6.40;99.90
6106;DHT22;3083;51.508;7.966;2023-11-18T16:01:31;6.40;99.90
6106;DHT22;3083;51.508;7.966;2023-11-18T16:03:59;6.40;99.90
6106;DHT22;3083;51.508;7.966;2023-11-18T16:06:26;6.40;99.90
6106;DHT22;3083;51.508;7.966;2023-11-18T16:08:53;6.50;99.90
6106;DHT22;3083;51.508;7.966;2023-11-18T16:11:19;6.40;99.90
6106;DHT22;3083;51.508;7.966;2023-11-18T16:13:47;6.50;99.90
6106;DHT22;3083;51.508;7.966;2023-11-18T16:16:14;6.50;99.90
6106;DHT22;3083;51.508;7.966;2023-11-18T16:18:40;6.50;99.90
6106;DHT22;3083;51.508;7.966;2023-11-18T16:21:09;6.50;99.90
6106;DHT22;3083;51.508;7.966;2023-11-18T16:23:37;6.50;99.90
6106;DHT22;3083;51.508;7.966;2023-11-18T16:26:04;6.60;99.90
6106;DHT22;3083;51.508;7.966;2023-11-18T16:28:32;6.50;99.90
6106;DHT22;3083;51.508;7.966;2023-11-18T16:31:01;6.50;99.90
6106;DHT22;3083;51.508;7.966;2023-11-18T16:33:27;6.50;99.90